Terminal Aerodrome Forecast
Issued by NWS Greer, SC

Home | Current Version | Previous Version | Text Only | Print | Product List | Glossary On
Versions: 1 2 3 4 5 6 7 8 9 10 11 12 13
000
FTUS42 KGSP 200500
TAFGSP
TAF
KGSP 200530Z 2006/2106 00000KT P6SM BKN250
     FM201500 20006KT P6SM FEW210=

USA.gov is the U.S. government's official web portal to all federal, state and local government web resources and services.